Quincy Regional Baldwin Field Quincy US
ICAO: KUIN
IATA: UIN
Category: Medium
Scheduled Services: Yes

Elevation: 768 ft
TransAlt. 18000 ft.

Airport Communications:
ASOS:118.325
KANSAS CITY CNTR:135.525
ST LOUIS RDO:122.5
CTAF/UNICOM:123

KUIN Zoom In..

If you have problems with the map follow the link
https://www.worldairports.se/pages/airport.php?
ICAO=KUIN

Runways:

(A) RW 04 length 7098 ft width 150 ft
ILS 110.10 / hdg 38

(B) RW 13 length 5397 ft width 150 ft
---- / hdg 133

(C) RW 18 length 5400 ft width 150 ft
---- / hdg 177

(D) RW 22 length 7098 ft width 150 ft
---- / hdg 218

(E) RW 31 length 5397 ft width 150 ft
---- / hdg 313

(F) RW 36 length 5400 ft width 150 ft
---- / hdg 357

Location; KUIN
Day. 18 / Time. 10.54 Zulu
* Altimeter: 29.74
* Temperature: 02° c. 35.6°f.
* Wind from: 210° Speed 10 kn.
Dewpoint: 01° c.
Visibility: 2 m.
Clouds: Overcast 300 ft.
Conditions: Light Rain.Conditions: Mist.

KUIN 181054Z AUTO 21010KT 2 1/2SM -RA BR OVC003 02/01 A2974 RMK AO2 UPB41E44RAB44 SLP077 P0001 T00170011


Wind From 210°
Speed 10 kn.

 
 
jpsmedia worldairports.se 2020   terms of use